Time;durP1;ratioP1;P1;durP2;ratioP2;P2;SDS_P1;SDS_P2;PMS_P1;PMS_P2;Temp;Humidity;BMP_temperature;BMP_pressure;BME280_temperature;BME280_humidity;BME280_pressure;Samples;Min_cycle;Max_cycle;Signal;HPM_P1;HPM_P2
2022/08/12 00:43:25;;;;;;;5.68;2.17;;;20.10;93.10;;;;;;5084326;28;20131;-54
2022/08/12 00:48:37;;;;;;;15.93;2.55;;;20.10;93.40;;;;;;5071601;28;20041;-54
2022/08/12 00:51:04;;;;;;;7.28;2.03;;;20.10;93.50;;;;;;5070888;28;20032;-55
2022/08/12 00:53:30;;;;;;;8.85;2.50;;;20.10;93.60;;;;;;5077899;28;20089;-52
2022/08/12 00:55:57;;;;;;;4.60;2.10;;;20.10;93.80;;;;;;5089954;28;20040;-52
2022/08/12 00:58:30;;;;;;;2.40;2.03;;;20.10;93.90;;;;;;5085435;28;20111;-56
2022/08/12 01:01:02;;;;;;;4.82;1.85;;;20.00;94.10;;;;;;5076986;28;20431;-53
2022/08/12 01:11:27;;;;;;;2.55;1.92;;;20.00;94.20;;;;;;5076549;28;20047;-55
2022/08/12 01:11:49;;;;;;;3.33;2.60;;;19.80;93.60;;;;;;5090879;28;20498;-51
2022/08/12 01:14:18;;;;;;;3.35;1.70;;;19.80;93.80;;;;;;5091497;28;20035;-51
2022/08/12 01:16:46;;;;;;;2.63;2.42;;;19.70;94.20;;;;;;5091340;28;20104;-51
2022/08/12 01:19:12;;;;;;;5.18;2.17;;;19.70;94.20;;;;;;5080522;28;20048;-51
2022/08/12 01:22:08;;;;;;;2.88;2.67;;;19.60;94.30;;;;;;5071373;28;20131;-53
2022/08/12 01:24:57;;;;;;;4.40;2.72;;;19.60;94.90;;;;;;5070278;28;20055;-50
2022/08/12 01:27:26;;;;;;;4.88;2.55;;;19.60;94.90;;;;;;5070771;28;20040;-51
2022/08/12 01:29:53;;;;;;;9.80;2.80;;;19.50;94.90;;;;;;5070636;28;20036;-52
2022/08/12 01:32:22;;;;;;;5.28;2.28;;;19.50;95.10;;;;;;5070681;28;20036;-54
2022/08/12 01:35:04;;;;;;;3.67;2.65;;;19.50;95.30;;;;;;5070002;28;20075;-51
2022/08/12 01:37:35;;;;;;;4.45;2.47;;;19.50;95.60;;;;;;5071798;28;20061;-51
2022/08/12 01:40:03;;;;;;;5.10;3.10;;;19.50;95.60;;;;;;5085664;28;20040;-51
2022/08/12 01:42:40;;;;;;;19.52;4.20;;;19.40;95.60;;;;;;5089968;28;20131;-52
2022/08/12 01:45:07;;;;;;;5.15;2.88;;;19.30;95.90;;;;;;5075130;28;20498;-51
2022/08/12 01:48:08;;;;;;;5.32;3.20;;;19.30;95.90;;;;;;5071553;28;20062;-51
2022/08/12 01:50:40;;;;;;;23.92;3.92;;;19.30;96.30;;;;;;5088337;28;20434;-51
2022/08/12 01:53:11;;;;;;;6.50;2.67;;;19.20;96.30;;;;;;5090283;28;20036;-51
2022/08/12 01:55:40;;;;;;;21.58;3.85;;;19.20;96.50;;;;;;5074979;28;20036;-52
2022/08/12 01:58:10;;;;;;;11.43;3.40;;;19.10;96.70;;;;;;5087882;28;20043;-53
2022/08/12 02:00:50;;;;;;;3.88;3.03;;;19.10;96.70;;;;;;5088799;28;20412;-52
2022/08/12 02:12:07;;;;;;;3.00;2.80;;;18.90;97.30;;;;;;5073115;28;20044;-51
2022/08/12 02:14:55;;;;;;;6.22;2.75;;;18.80;97.60;;;;;;5083367;28;20040;-52
2022/08/12 02:17:30;;;;;;;5.45;3.38;;;18.70;98.00;;;;;;5067778;28;20058;-50
2022/08/12 02:20:06;;;;;;;43.28;5.10;;;18.70;98.00;;;;;;5088583;28;20062;-52
2022/08/12 02:22:41;;;;;;;6.07;3.22;;;18.60;98.30;;;;;;5090343;28;20123;-51
2022/08/12 02:25:17;;;;;;;4.35;3.28;;;18.60;98.20;;;;;;5080303;28;20497;-51
2022/08/12 02:27:48;;;;;;;9.18;3.30;;;18.50;98.30;;;;;;5069792;28;20139;-51
2022/08/12 02:30:18;;;;;;;7.45;3.38;;;18.50;98.40;;;;;;5071211;28;20064;-52
2022/08/12 02:32:45;;;;;;;4.32;3.38;;;18.40;98.60;;;;;;5069854;28;20033;-53
2022/08/12 02:35:18;;;;;;;4.93;3.55;;;18.40;98.70;;;;;;5078249;28;20040;-51
2022/08/12 02:37:45;;;;;;;4.40;2.85;;;18.40;99.00;;;;;;5089620;28;20044;-52
2022/08/12 02:40:13;;;;;;;28.13;4.63;;;18.40;99.00;;;;;;5081803;28;20043;-51
2022/08/12 02:42:59;;;;;;;10.45;3.67;;;18.30;98.80;;;;;;5070265;28;20041;-52
2022/08/12 02:45:52;;;;;;;7.32;3.72;;;18.20;98.80;;;;;;5078936;28;20090;-51
2022/08/12 02:48:29;;;;;;;5.55;3.95;;;18.10;99.30;;;;;;5089808;28;20044;-53
2022/08/12 02:51:05;;;;;;;10.82;4.43;;;18.20;99.50;;;;;;5077176;28;20048;-50
2022/08/12 02:53:33;;;;;;;6.03;4.03;;;18.20;99.60;;;;;;5053495;28;20052;-52
2022/08/12 02:56:01;;;;;;;8.18;3.97;;;18.20;99.80;;;;;;5065906;28;20108;-53
2022/08/12 02:58:30;;;;;;;5.28;3.78;;;18.20;99.90;;;;;;5072953;28;20044;-51
2022/08/12 03:00:59;;;;;;;4.68;4.00;;;18.20;99.90;;;;;;5079245;28;20454;-52
2022/08/12 03:03:31;;;;;;;3.92;3.53;;;18.20;99.90;;;;;;5090213;28;20065;-52
2022/08/12 03:06:02;;;;;;;6.03;3.75;;;18.20;99.90;;;;;;5077577;28;20067;-53
2022/08/12 03:08:33;;;;;;;4.82;4.35;;;18.20;99.90;;;;;;5069366;28;20055;-51
2022/08/12 03:11:11;;;;;;;7.25;3.75;;;18.20;99.90;;;;;;5073705;28;20043;-52
2022/08/12 03:13:42;;;;;;;6.13;4.47;;;18.20;99.90;;;;;;5073378;28;20045;-51
2022/08/12 03:16:09;;;;;;;8.20;4.00;;;18.20;99.90;;;;;;5073525;28;20562;-52
2022/08/12 03:18:36;;;;;;;10.40;4.43;;;18.20;99.90;;;;;;5089334;28;20044;-51
2022/08/12 03:21:02;;;;;;;5.38;3.50;;;18.20;99.90;;;;;;5092942;28;20048;-50
2022/08/12 03:23:29;;;;;;;5.00;3.83;;;18.10;99.90;;;;;;5093265;28;20375;-53
2022/08/12 03:25:55;;;;;;;6.80;4.20;;;18.00;99.90;;;;;;5093393;28;20408;-52
2022/08/12 03:31:07;;;;;;;4.50;4.07;;;18.10;99.90;;;;;;5093224;28;20040;-51
2022/08/12 03:33:36;;;;;;;7.68;4.40;;;18.00;99.90;;;;;;5074664;28;20051;-52
2022/08/12 03:36:05;;;;;;;5.40;3.63;;;18.00;99.90;;;;;;5081746;28;20054;-50
2022/08/12 03:38:34;;;;;;;6.40;3.95;;;18.00;99.90;;;;;;5093010;28;20043;-51
2022/08/12 04:01:05;;;;;;;5.15;4.55;;;17.60;99.90;;;;;;5075419;28;20044;-51
2022/08/12 04:03:53;;;;;;;4.68;4.03;;;17.60;99.90;;;;;;5090344;28;20044;-52
2022/08/12 04:06:28;;;;;;;5.40;3.90;;;17.50;99.90;;;;;;5081966;28;20497;-52
2022/08/12 04:08:56;;;;;;;6.75;4.60;;;17.50;99.90;;;;;;5092221;28;20405;-51
2022/08/12 04:14:12;;;;;;;3.88;3.55;;;17.50;99.90;;;;;;5072228;28;20044;-52
2022/08/12 04:16:39;;;;;;;4.95;4.43;;;17.50;99.90;;;;;;5079297;28;20240;-52
2022/08/12 04:19:06;;;;;;;9.73;4.60;;;17.50;99.90;;;;;;5072573;28;20040;-51
2022/08/12 04:21:32;;;;;;;6.57;4.20;;;17.40;99.90;;;;;;5079317;28;20050;-52
2022/08/12 04:23:59;;;;;;;4.90;3.92;;;17.30;99.90;;;;;;5091731;28;20036;-52
2022/08/12 04:26:28;;;;;;;5.63;4.10;;;17.30;99.90;;;;;;5090533;28;20123;-52
2022/08/12 04:28:55;;;;;;;7.38;4.13;;;17.20;99.90;;;;;;5092654;28;20097;-52
2022/08/12 04:31:30;;;;;;;7.07;4.07;;;17.10;99.90;;;;;;5086768;28;20036;-52
2022/08/12 04:33:57;;;;;;;10.02;4.65;;;17.10;99.90;;;;;;5071459;28;20041;-52
2022/08/12 04:36:23;;;;;;;4.63;3.88;;;17.10;99.90;;;;;;5072840;28;20521;-51
2022/08/12 04:38:49;;;;;;;6.28;3.80;;;17.00;99.90;;;;;;5074781;28;20036;-52
2022/08/12 04:41:17;;;;;;;5.07;4.57;;;17.00;99.90;;;;;;5089407;28;20048;-51
2022/08/12 04:43:43;;;;;;;4.10;3.75;;;17.00;99.90;;;;;;5072311;28;20048;-52
2022/08/12 04:46:10;;;;;;;5.05;4.28;;;17.00;99.90;;;;;;5079586;28;20478;-50
2022/08/12 04:48:36;;;;;;;6.15;5.05;;;17.00;99.90;;;;;;5071195;28;20482;-52
2022/08/12 04:51:02;;;;;;;6.72;4.85;;;17.10;99.90;;;;;;5072809;28;20048;-52
2022/08/12 04:53:28;;;;;;;6.78;5.22;;;17.10;99.90;;;;;;5091316;28;20075;-51
2022/08/12 04:55:54;;;;;;;9.60;4.55;;;17.20;99.90;;;;;;5091664;28;20075;-52
2022/08/12 04:58:20;;;;;;;7.45;4.88;;;17.20;99.90;;;;;;5054919;28;20032;-51
2022/08/12 05:00:46;;;;;;;7.72;5.00;;;17.30;99.90;;;;;;5079009;28;20032;-51
2022/08/12 05:03:12;;;;;;;7.00;4.88;;;17.40;99.90;;;;;;5059373;28;20044;-52
2022/08/12 05:05:39;;;;;;;6.47;4.72;;;17.40;99.90;;;;;;5072530;28;20043;-52
2022/08/12 05:08:11;;;;;;;7.85;5.10;;;17.40;99.90;;;;;;5072961;28;20478;-52
2022/08/12 05:10:36;;;;;;;6.75;4.53;;;17.40;99.90;;;;;;5091575;28;20092;-50
2022/08/12 05:13:07;;;;;;;5.85;4.95;;;17.50;99.90;;;;;;5091965;28;20118;-51
2022/08/12 05:15:37;;;;;;;7.50;4.68;;;17.60;99.90;;;;;;5090910;28;20481;-51
2022/08/12 05:18:03;;;;;;;6.60;4.38;;;17.60;99.90;;;;;;5088120;28;20036;-53
2022/08/12 05:20:29;;;;;;;10.48;4.78;;;17.60;99.90;;;;;;5071353;28;20051;-52
2022/08/12 05:23:08;;;;;;;;;;;17.70;99.90;;;;;;5071725;28;20127;-51
2022/08/12 05:25:33;;;;;;;10.70;5.00;;;17.80;99.90;;;;;;5053066;28;19966;-52
2022/08/12 05:27:59;;;;;;;16.77;5.45;;;17.80;99.90;;;;;;5070381;28;20044;-54
2022/08/12 05:30:29;;;;;;;8.63;4.78;;;17.90;99.90;;;;;;5070601;28;20449;-52
2022/08/12 05:32:56;;;;;;;7.65;3.72;;;18.00;99.90;;;;;;5070861;28;20052;-52
2022/08/12 05:35:22;;;;;;;10.63;4.25;;;18.00;99.90;;;;;;5071162;28;20047;-51
2022/08/12 05:38:54;;;;;;;10.25;4.35;;;18.20;99.90;;;;;;5072926;28;20497;-51
2022/08/12 05:40:34;;;;;;;8.93;4.90;;;18.20;99.90;;;;;;5082383;28;20055;-52
2022/08/12 05:43:00;;;;;;;5.47;4.07;;;18.30;99.90;;;;;;5070487;28;20044;-53
2022/08/12 05:45:25;;;;;;;9.82;4.05;;;18.40;99.90;;;;;;5081067;28;20086;-52
2022/08/12 05:47:51;;;;;;;8.98;4.35;;;18.50;99.90;;;;;;5087783;28;20500;-52
2022/08/12 05:50:16;;;;;;;7.93;4.15;;;18.50;99.90;;;;;;5084204;28;20587;-56
2022/08/12 05:52:42;;;;;;;9.57;3.85;;;18.60;99.90;;;;;;5080629;28;20407;-54
2022/08/12 05:55:09;;;;;;;;;;;18.70;99.90;;;;;;5079369;28;20050;-53
2022/08/12 05:57:34;;;;;;;6.63;4.00;;;18.80;99.90;;;;;;5090797;28;19920;-53
2022/08/12 06:00:00;;;;;;;10.30;3.80;;;18.90;99.90;;;;;;5076935;28;20501;-52
2022/08/12 06:02:25;;;;;;;;;;;19.00;99.90;;;;;;5075687;28;20032;-53
2022/08/12 06:04:52;;;;;;;221.20;16.52;;;19.10;99.90;;;;;;5076624;28;20438;-55
2022/08/12 06:07:18;;;;;;;18.77;3.95;;;19.20;99.90;;;;;;5089711;28;20044;-53
2022/08/12 06:09:43;;;;;;;6.00;3.33;;;19.40;99.90;;;;;;5090120;28;20119;-55
2022/08/12 06:12:10;;;;;;;6.40;4.20;;;19.50;99.90;;;;;;5089612;28;20039;-52
2022/08/12 06:14:36;;;;;;;6.75;3.20;;;19.60;99.90;;;;;;5078283;28;20140;-52
2022/08/12 06:17:03;;;;;;;6.07;3.80;;;19.70;99.90;;;;;;5073548;28;20036;-52
2022/08/12 06:19:30;;;;;;;8.45;4.00;;;19.80;99.90;;;;;;5080568;28;20041;-53
2022/08/12 06:21:56;;;;;;;8.55;4.18;;;19.90;99.90;;;;;;5081346;28;20040;-53
2022/08/12 06:24:23;;;;;;;7.60;3.83;;;19.90;99.90;;;;;;5084620;28;20119;-53
2022/08/12 06:26:50;;;;;;;5.80;3.92;;;20.00;99.90;;;;;;5089290;28;20105;-53
2022/08/12 06:29:18;;;;;;;9.00;4.15;;;20.10;99.90;;;;;;5070287;28;20131;-55
2022/08/12 06:31:49;;;;;;;5.32;4.32;;;20.30;99.80;;;;;;5070149;28;20120;-52
2022/08/12 06:34:16;;;;;;;6.32;3.50;;;20.40;99.50;;;;;;5074963;28;20333;-52
2022/08/12 06:36:43;;;;;;;9.13;3.55;;;20.50;99.40;;;;;;5085768;28;20066;-56
2022/08/12 06:39:09;;;;;;;6.15;3.83;;;20.50;99.30;;;;;;5086495;28;20119;-54
2022/08/12 06:44:19;;;;;;;9.02;3.35;;;20.70;99.00;;;;;;5090602;28;20435;-54
2022/08/12 06:46:45;;;;;;;;;;;20.90;99.00;;;;;;5074910;28;20033;-52
2022/08/12 06:49:12;;;;;;;5.18;3.80;;;21.00;98.30;;;;;;5073823;28;20335;-53
2022/08/12 06:51:38;;;;;;;12.18;4.10;;;21.00;98.30;;;;;;5092272;28;20040;-53
2022/08/12 06:54:05;;;;;;;6.35;3.80;;;21.10;98.40;;;;;;5075425;28;20062;-57
2022/08/12 06:56:30;;;;;;;5.88;3.65;;;21.20;98.30;;;;;;5076368;28;20078;-53
2022/08/12 06:58:56;;;;;;;;;;;21.30;98.20;;;;;;5078904;28;20068;-53
2022/08/12 07:01:23;;;;;;;11.15;3.33;;;21.40;98.20;;;;;;5092452;28;19916;-54
2022/08/12 07:03:50;;;;;;;6.75;3.78;;;21.40;98.30;;;;;;5093008;28;20425;-54
2022/08/12 07:06:17;;;;;;;8.73;3.33;;;21.50;98.10;;;;;;5079235;28;20405;-54
2022/08/12 07:08:42;;;;;;;9.93;3.72;;;21.60;97.80;;;;;;5081823;28;20036;-54
2022/08/12 07:11:10;;;;;;;;;;;21.70;97.90;;;;;;5080373;28;20474;-53
2022/08/12 07:13:42;;;;;;;10.43;3.40;;;21.90;97.70;;;;;;5072846;28;19928;-54
2022/08/12 07:16:09;;;;;;;7.15;3.50;;;21.90;97.30;;;;;;5066895;28;20050;-54
2022/08/12 07:18:35;;;;;;;10.48;4.18;;;22.00;97.20;;;;;;5090505;28;20036;-58
2022/08/12 07:21:02;;;;;;;;;;;22.10;97.30;;;;;;5082055;28;20036;-57
2022/08/12 07:23:34;;;;;;;;;;;22.20;96.90;;;;;;5073245;28;19966;-55
2022/08/12 07:26:02;;;;;;;8.40;3.35;;;22.40;97.20;;;;;;5082687;28;19923;-54
2022/08/12 07:28:32;;;;;;;5.95;2.63;;;22.50;96.60;;;;;;5088282;28;20068;-53
2022/08/12 07:30:58;;;;;;;4.43;3.03;;;22.60;96.40;;;;;;5063648;28;20052;-53
2022/08/12 07:33:27;;;;;;;5.30;2.95;;;22.70;96.10;;;;;;5093225;28;20040;-56
2022/08/12 07:35:55;;;;;;;7.82;3.35;;;22.80;95.80;;;;;;5085195;28;20032;-56
2022/08/12 07:38:33;;;;;;;7.75;2.45;;;22.90;95.50;;;;;;5073098;28;20671;-55
2022/08/12 07:41:02;;;;;;;5.70;2.95;;;23.00;95.50;;;;;;5073758;28;20040;-53
2022/08/12 07:43:28;;;;;;;6.32;2.33;;;23.10;95.40;;;;;;5071791;28;20036;-55
2022/08/12 07:45:54;;;;;;;29.13;3.17;;;23.20;95.00;;;;;;5058317;28;20532;-53
2022/08/12 07:48:22;;;;;;;5.65;3.17;;;23.40;94.60;;;;;;5092837;28;20412;-52
2022/08/12 07:50:48;;;;;;;10.90;2.75;;;23.50;94.10;;;;;;5079817;28;20071;-53
2022/08/12 07:53:13;;;;;;;;;;;23.60;94.20;;;;;;5093092;28;20076;-55
2022/08/12 07:55:39;;;;;;;7.82;3.08;;;23.70;94.20;;;;;;5090696;28;19915;-53
2022/08/12 07:58:05;;;;;;;5.80;2.85;;;23.80;93.80;;;;;;5071641;28;20040;-52
2022/08/12 08:00:35;;;;;;;5.88;2.65;;;23.90;93.40;;;;;;5073670;28;20390;-53
2022/08/12 08:03:01;;;;;;;7.43;3.13;;;24.10;93.00;;;;;;5091422;28;20055;-53
2022/08/12 08:05:34;;;;;;;4.32;2.53;;;24.20;92.60;;;;;;5090144;28;20036;-52
2022/08/12 08:08:01;;;;;;;3.40;2.40;;;24.30;92.30;;;;;;5074425;28;20474;-54
2022/08/12 08:10:29;;;;;;;6.53;2.95;;;24.30;92.10;;;;;;5071975;28;20465;-53
2022/08/12 08:13:03;;;;;;;6.70;3.50;;;24.40;91.80;;;;;;5069923;28;20109;-52
2022/08/12 08:15:30;;;;;;;4.13;2.80;;;24.50;91.30;;;;;;5082226;28;20106;-52
2022/08/12 08:18:02;;;;;;;7.93;2.97;;;24.60;90.90;;;;;;5076042;28;20048;-55
2022/08/12 08:20:32;;;;;;;3.10;2.45;;;24.70;90.50;;;;;;5089194;28;20451;-54
2022/08/12 08:23:00;;;;;;;8.60;2.47;;;24.90;90.70;;;;;;5079105;28;20029;-55
2022/08/12 08:25:32;;;;;;;5.63;2.90;;;25.00;90.10;;;;;;5077483;28;20093;-52
2022/08/12 08:28:04;;;;;;;3.70;2.50;;;25.10;89.60;;;;;;5079750;28;20037;-52
2022/08/12 08:30:31;;;;;;;8.43;2.75;;;25.20;89.70;;;;;;5071935;28;20207;-52
2022/08/12 08:32:58;;;;;;;8.45;2.50;;;25.40;90.00;;;;;;5082877;28;20221;-52
2022/08/12 08:35:24;;;;;;;8.95;2.28;;;25.50;90.00;;;;;;5088722;28;20378;-52
2022/08/12 08:37:51;;;;;;;3.63;2.22;;;25.70;90.00;;;;;;5080209;28;20036;-55
2022/08/12 08:43:03;;;;;;;6.25;2.85;;;25.90;88.30;;;;;;5082114;28;20048;-52
2022/08/12 08:45:29;;;;;;;7.75;2.65;;;26.00;86.80;;;;;;5071663;28;20440;-53
2022/08/12 08:47:55;;;;;;;10.95;2.47;;;26.10;85.80;;;;;;5078707;28;20497;-52
2022/08/12 08:50:20;;;;;;;7.00;2.45;;;26.20;85.70;;;;;;5091346;28;20054;-52
2022/08/12 08:52:50;;;;;;;8.45;2.95;;;26.20;84.10;;;;;;5090979;28;20508;-52
2022/08/12 08:55:17;;;;;;;9.05;2.28;;;26.30;83.90;;;;;;5073560;28;20127;-52
2022/08/12 08:57:49;;;;;;;4.90;2.13;;;26.50;84.50;;;;;;5078194;28;20071;-52
2022/08/12 09:00:16;;;;;;;5.50;1.92;;;26.60;82.50;;;;;;5071086;28;20036;-51
2022/08/12 09:02:43;;;;;;;3.15;2.05;;;26.70;81.90;;;;;;5070711;28;20040;-52
2022/08/12 09:05:10;;;;;;;5.90;2.33;;;26.80;82.60;;;;;;5076168;28;20046;-52
2022/08/12 09:07:49;;;;;;;3.15;1.38;;;26.90;82.70;;;;;;5090764;28;20409;-52
2022/08/12 09:10:18;;;;;;;4.15;1.40;;;27.00;82.00;;;;;;5082945;28;20033;-52
2022/08/12 09:15:30;;;;;;;8.30;2.67;;;27.30;80.50;;;;;;5072180;28;20049;-51
2022/08/12 09:17:57;;;;;;;6.60;2.10;;;27.40;80.00;;;;;;5071116;28;20277;-51
2022/08/12 09:20:26;;;;;;;3.45;1.70;;;27.50;81.00;;;;;;5072034;28;20086;-51
2022/08/12 09:22:53;;;;;;;7.28;1.92;;;27.60;79.50;;;;;;5071955;28;20044;-51
2022/08/12 09:25:26;;;;;;;5.97;1.50;;;27.70;79.40;;;;;;5074415;28;20040;-52
2022/08/12 09:27:53;;;;;;;4.78;1.67;;;27.80;79.50;;;;;;5091108;28;20043;-52
2022/08/12 09:30:20;;;;;;;4.57;1.60;;;27.90;78.50;;;;;;5087793;28;20032;-51
2022/08/12 09:32:49;;;;;;;3.83;1.70;;;28.00;77.80;;;;;;5077364;28;20090;-53
2022/08/12 09:35:26;;;;;;;7.93;1.95;;;28.10;77.80;;;;;;5085983;28;20378;-51
2022/08/12 09:37:54;;;;;;;5.40;1.20;;;28.20;75.70;;;;;;5079103;28;20040;-51
2022/08/12 09:40:22;;;;;;;5.07;1.50;;;28.30;75.90;;;;;;5076533;28;20424;-52
2022/08/12 09:45:33;;;;;;;6.60;1.55;;;28.50;74.40;;;;;;5072461;28;20056;-52
2022/08/12 09:48:07;;;;;;;5.68;1.80;;;28.60;75.30;;;;;;5090566;28;20059;-49
2022/08/12 09:50:34;;;;;;;6.85;2.55;;;28.70;74.30;;;;;;5088150;28;20040;-52
2022/08/12 09:53:06;;;;;;;6.32;1.98;;;28.80;72.10;;;;;;5071292;28;20036;-54
2022/08/12 09:55:32;;;;;;;6.60;1.95;;;28.80;72.10;;;;;;5070392;28;20558;-53
2022/08/12 09:57:58;;;;;;;15.57;1.70;;;28.80;69.80;;;;;;5071089;28;20092;-52
2022/08/12 10:00:26;;;;;;;14.45;1.85;;;28.80;69.90;;;;;;5081340;28;20044;-52
2022/08/12 10:03:00;;;;;;;6.53;1.40;;;28.90;70.40;;;;;;5069781;28;20410;-53
2022/08/12 10:05:26;;;;;;;4.68;1.52;;;29.00;70.60;;;;;;5069777;28;20045;-53
2022/08/12 10:07:52;;;;;;;7.55;1.30;;;29.10;69.80;;;;;;5078367;28;20051;-52
2022/08/12 10:10:18;;;;;;;4.65;1.30;;;29.20;70.30;;;;;;5081253;28;20299;-53
2022/08/12 10:15:30;;;;;;;7.25;1.13;;;29.40;68.20;;;;;;5083561;28;20048;-50
2022/08/12 10:17:56;;;;;;;6.18;1.02;;;29.60;66.80;;;;;;5089879;28;20089;-50
2022/08/12 10:20:22;;;;;;;8.52;0.88;;;29.60;65.10;;;;;;5089727;28;20043;-54
2022/08/12 10:22:58;;;;;;;1.35;1.17;;;29.60;65.10;;;;;;5089902;28;20039;-50
2022/08/12 10:30:52;;;;;;;4.93;1.10;;;29.70;62.30;;;;;;5081350;28;20040;-51
2022/08/12 10:33:17;;;;;;;1.67;0.65;;;29.80;61.80;;;;;;5070647;28;20490;-51
2022/08/12 10:35:43;;;;;;;2.17;0.90;;;29.80;59.40;;;;;;5035628;28;20048;-50
2022/08/12 10:38:10;;;;;;;4.10;0.63;;;29.80;59.40;;;;;;5084927;28;20489;-51
2022/08/12 10:43:39;;;;;;;3.80;0.57;;;29.80;58.00;;;;;;5070803;28;20111;-50
2022/08/12 10:43:42;;;;;;;4.45;0.70;;;29.80;58.50;;;;;;5069460;28;20045;-50
2022/08/12 10:46:16;;;;;;;2.30;0.80;;;29.80;59.00;;;;;;5078316;28;20040;-52
2022/08/12 10:48:47;;;;;;;2.15;0.88;;;29.90;58.90;;;;;;5069627;28;20112;-54
2022/08/12 10:51:13;;;;;;;5.50;0.77;;;29.90;59.30;;;;;;5087821;28;20054;-52
2022/08/12 10:53:42;;;;;;;5.03;0.80;;;30.00;58.20;;;;;;5070853;28;20469;-50
2022/08/12 10:56:10;;;;;;;5.28;0.70;;;30.00;59.50;;;;;;5070652;28;20067;-51
2022/08/12 10:58:39;;;;;;;6.97;0.70;;;30.10;58.10;;;;;;5055052;28;20036;-50
2022/08/12 11:01:05;;;;;;;5.57;0.85;;;30.10;58.20;;;;;;5079164;28;20417;-53
2022/08/12 11:03:35;;;;;;;4.10;0.95;;;30.20;57.80;;;;;;5088344;28;20062;-52
2022/08/12 11:06:01;;;;;;;1.75;0.82;;;30.20;57.60;;;;;;5064520;28;20040;-53
2022/08/12 11:08:26;;;;;;;3.97;0.90;;;30.20;57.40;;;;;;5069102;28;20340;-50
2022/08/12 11:10:53;;;;;;;2.35;0.75;;;30.30;56.60;;;;;;5074586;28;20039;-50
2022/08/12 11:13:19;;;;;;;3.95;0.73;;;30.30;55.90;;;;;;5074744;28;20037;-51
2022/08/12 11:15:45;;;;;;;2.00;0.80;;;30.30;56.60;;;;;;5081722;28;20390;-51
2022/08/12 11:18:11;;;;;;;2.45;0.70;;;30.40;56.30;;;;;;5070680;28;20039;-53
2022/08/12 11:20:37;;;;;;;5.80;0.60;;;30.50;56.10;;;;;;5080618;28;20036;-50
2022/08/12 11:23:02;;;;;;;7.05;0.77;;;30.60;57.20;;;;;;5069248;28;20029;-53
2022/08/12 11:25:28;;;;;;;3.95;0.93;;;30.70;56.00;;;;;;5076026;28;20071;-53
2022/08/12 11:27:53;;;;;;;4.57;0.70;;;30.70;56.30;;;;;;5089191;28;20072;-53
2022/08/12 11:30:19;;;;;;;3.10;1.00;;;30.80;56.30;;;;;;5085078;28;20033;-50
2022/08/12 11:32:45;;;;;;;10.27;0.68;;;30.90;55.60;;;;;;5080832;28;20478;-50
2022/08/12 11:35:10;;;;;;;2.55;0.77;;;30.80;55.40;;;;;;5088945;28;20124;-54
2022/08/12 11:37:37;;;;;;;6.47;0.73;;;30.80;54.90;;;;;;5072511;28;20040;-56
2022/08/12 11:40:05;;;;;;;5.78;1.15;;;30.80;54.70;;;;;;5057184;28;20055;-52
2022/08/12 11:42:30;;;;;;;7.60;0.98;;;30.80;54.70;;;;;;5092727;28;20244;-50
2022/08/12 11:44:56;;;;;;;1.92;0.80;;;30.90;54.30;;;;;;5090659;28;20040;-52
2022/08/12 11:47:22;;;;;;;1.30;0.68;;;30.90;53.70;;;;;;5072033;28;20040;-50
2022/08/12 11:49:47;;;;;;;3.08;0.63;;;30.90;53.20;;;;;;5072812;28;20040;-51
2022/08/12 11:52:13;;;;;;;1.80;0.65;;;30.90;52.70;;;;;;5091028;28;20032;-50
2022/08/12 11:54:38;;;;;;;5.82;0.60;;;30.90;52.60;;;;;;5092396;28;20455;-53
2022/08/12 11:57:04;;;;;;;3.60;0.90;;;30.90;52.90;;;;;;5090495;28;20041;-50
2022/08/12 11:59:31;;;;;;;2.53;0.70;;;30.90;52.20;;;;;;5092500;28;20408;-50
2022/08/12 12:01:57;;;;;;;5.38;1.05;;;31.00;52.30;;;;;;5079811;28;20041;-52
2022/08/12 12:04:22;;;;;;;2.08;0.50;;;31.00;52.70;;;;;;5071992;28;20113;-51
2022/08/12 12:06:48;;;;;;;7.65;0.95;;;31.00;53.40;;;;;;5082819;28;20032;-50
2022/08/12 12:09:13;;;;;;;8.40;1.20;;;31.10;53.70;;;;;;5092387;28;20085;-50
2022/08/12 12:11:42;;;;;;;5.10;0.93;;;31.10;52.50;;;;;;5083669;28;20370;-52
2022/08/12 12:14:08;;;;;;;3.40;1.13;;;31.20;52.40;;;;;;5071825;28;20052;-53
2022/08/12 12:16:34;;;;;;;1.52;0.60;;;31.20;51.90;;;;;;5072533;28;20040;-54
2022/08/12 12:18:59;;;;;;;2.97;0.70;;;31.10;52.30;;;;;;5072494;28;20051;-52
2022/08/12 12:21:25;;;;;;;1.77;0.93;;;31.10;51.40;;;;;;5075909;28;20044;-51
2022/08/12 12:23:50;;;;;;;4.15;0.73;;;31.20;51.20;;;;;;5081293;28;20047;-50
2022/08/12 12:26:16;;;;;;;6.07;1.30;;;31.30;52.30;;;;;;5080814;28;20040;-55
2022/08/12 12:28:41;;;;;;;4.60;0.65;;;31.40;52.00;;;;;;5080609;28;20029;-53
2022/08/12 12:31:07;;;;;;;2.80;0.73;;;31.40;50.20;;;;;;5082191;28;20032;-53
2022/08/12 12:33:34;;;;;;;2.72;0.88;;;31.50;50.50;;;;;;5084647;28;20093;-54
2022/08/12 12:36:00;;;;;;;6.05;0.70;;;31.60;50.80;;;;;;5091734;28;20036;-50
2022/08/12 12:38:26;;;;;;;3.20;0.70;;;31.60;51.80;;;;;;5072371;28;20517;-51
2022/08/12 12:40:52;;;;;;;1.58;0.50;;;31.60;51.40;;;;;;5072867;28;20055;-55
2022/08/12 12:43:18;;;;;;;4.82;0.88;;;31.60;51.10;;;;;;5088158;28;20508;-50
2022/08/12 12:45:44;;;;;;;3.03;0.60;;;31.60;50.60;;;;;;5091270;28;20028;-54
2022/08/12 12:48:16;;;;;;;4.97;0.75;;;31.70;50.80;;;;;;5075836;28;20459;-54
2022/08/12 12:50:44;;;;;;;1.55;0.70;;;31.70;51.30;;;;;;5071222;28;20049;-51
2022/08/12 12:53:11;;;;;;;4.65;0.80;;;31.80;50.40;;;;;;5086737;28;20045;-53
2022/08/12 12:55:37;;;;;;;3.13;0.68;;;31.80;50.20;;;;;;5091830;28;20036;-54
2022/08/12 12:58:10;;;;;;;2.53;0.70;;;31.70;49.80;;;;;;5076669;28;20048;-52
2022/08/12 13:00:41;;;;;;;1.98;0.70;;;31.70;49.60;;;;;;5071353;28;20049;-52
2022/08/12 13:03:07;;;;;;;9.32;1.05;;;31.70;49.80;;;;;;5073869;28;20060;-52
2022/08/12 13:05:35;;;;;;;7.45;0.73;;;31.80;49.60;;;;;;5074180;28;20031;-54
2022/08/12 13:08:03;;;;;;;4.13;0.73;;;31.70;50.00;;;;;;5078495;28;20040;-56
2022/08/12 13:10:30;;;;;;;4.72;0.70;;;31.70;50.80;;;;;;5071032;28;20075;-54
2022/08/12 13:12:56;;;;;;;7.10;0.90;;;31.70;50.40;;;;;;5071959;28;20040;-54
2022/08/12 13:15:22;;;;;;;3.63;0.77;;;31.70;49.60;;;;;;5083279;28;20036;-53
2022/08/12 13:17:54;;;;;;;2.08;0.98;;;31.70;50.10;;;;;;5082026;28;20045;-51
2022/08/12 13:20:21;;;;;;;3.70;0.85;;;31.80;49.20;;;;;;5052745;28;20052;-51
2022/08/12 13:22:47;;;;;;;5.78;1.15;;;31.80;48.70;;;;;;5078609;28;20040;-54
2022/08/12 13:25:15;;;;;;;5.20;0.80;;;31.90;50.60;;;;;;5090407;28;20075;-52
2022/08/12 13:27:44;;;;;;;6.65;0.88;;;31.90;50.40;;;;;;5084870;28;20025;-53
2022/08/12 13:30:12;;;;;;;7.95;0.82;;;31.80;48.20;;;;;;5072852;28;20040;-54
2022/08/12 13:32:52;;;;;;;2.45;0.73;;;31.90;48.70;;;;;;5068659;28;20036;-53
2022/08/12 13:35:18;;;;;;;5.97;0.82;;;31.80;48.10;;;;;;5072669;28;20050;-53
2022/08/12 13:37:52;;;;;;;35.58;3.08;;;31.80;49.90;;;;;;5090160;28;20118;-54
2022/08/12 13:40:17;;;;;;;3.95;1.00;;;31.80;49.10;;;;;;5086328;28;20036;-54
2022/08/12 13:42:47;;;;;;;4.28;0.55;;;31.90;49.10;;;;;;5078240;28;20207;-54
2022/08/12 13:45:17;;;;;;;4.10;0.73;;;31.80;48.10;;;;;;5075928;28;20489;-55
2022/08/12 13:47:54;;;;;;;3.55;0.57;;;31.80;48.30;;;;;;5090524;28;20075;-56
2022/08/12 13:50:28;;;;;;;2.70;0.85;;;31.90;47.20;;;;;;5069871;28;20413;-53
2022/08/12 13:52:54;;;;;;;5.30;0.68;;;31.90;49.10;;;;;;5090079;28;20044;-54
2022/08/12 13:55:24;;;;;;;4.93;1.17;;;31.90;49.10;;;;;;5070136;28;20051;-53
2022/08/12 13:57:50;;;;;;;1.88;0.68;;;31.90;48.90;;;;;;5070163;28;20495;-51
2022/08/12 14:00:15;;;;;;;6.60;0.70;;;31.80;49.30;;;;;;5077280;28;20286;-53
2022/08/12 14:02:41;;;;;;;4.07;0.65;;;31.70;49.10;;;;;;5078710;28;20040;-53
2022/08/12 14:05:08;;;;;;;2.90;0.77;;;31.70;49.10;;;;;;5080701;28;20125;-52
2022/08/12 14:07:51;;;;;;;6.47;1.13;;;31.70;49.00;;;;;;5086384;28;20093;-51
2022/08/12 14:10:40;;;;;;;4.75;0.57;;;31.70;48.40;;;;;;5088003;28;20118;-52
2022/08/12 14:13:07;;;;;;;2.45;0.73;;;31.70;48.40;;;;;;5066138;28;20470;-52
2022/08/12 14:15:34;;;;;;;0.95;0.55;;;31.70;50.20;;;;;;5081105;28;20032;-53
2022/08/12 14:18:09;;;;;;;5.93;0.73;;;31.70;48.60;;;;;;5084596;28;20063;-51
2022/08/12 14:20:35;;;;;;;3.03;0.80;;;31.70;48.20;;;;;;5071936;28;20097;-51
2022/08/12 14:23:00;;;;;;;7.10;0.85;;;31.70;48.50;;;;;;5085910;28;20036;-51
2022/08/12 14:25:29;;;;;;;7.43;0.70;;;31.70;48.40;;;;;;5083119;28;20508;-57
2022/08/12 14:28:03;;;;;;;2.63;0.60;;;31.70;48.20;;;;;;5073088;28;20426;-56
2022/08/12 14:30:29;;;;;;;4.93;0.75;;;31.60;48.10;;;;;;5074695;28;20531;-54
2022/08/12 14:32:55;;;;;;;5.57;0.60;;;31.50;48.20;;;;;;5060945;28;20036;-56
2022/08/12 14:35:20;;;;;;;8.38;1.08;;;31.60;48.30;;;;;;5085717;28;20067;-55
2022/08/12 14:37:48;;;;;;;14.00;1.33;;;31.60;49.10;;;;;;5084724;28;20047;-57
2022/08/12 14:40:14;;;;;;;5.65;0.60;;;31.70;48.50;;;;;;5086125;28;20036;-57